Observations

85.8 °F / 29.9 °C
ENE at 17 MPH
68%
74.3°F / 23.5 °C
29.84" (1010 mb)
10 mile(s)
mostly cloudy

Observations

Surface


Raw METARs

2018/02/23 01:40
PKWA 230140Z AUTO 06015KT 10SM SCT023 SCT031 BKN046 30/24 A2984 RMK AO2 T02990235

Translated METAR

Kwajalein, Bucholz AAF, Kwajalein KMR ATOL Airport, Marshall Islands (PKWA) 08-43N 167-44E 2M
Feb 22, 2018 - 08:40 PM EST / 2018.02.23 0140 UTC
Wind: from the ENE (060 degrees) at 17 MPH (15 KT):0
Visibility: 10 mile(s):0
Sky conditions: mostly cloudy
Temperature: 85.8 F (29.9 C)
Heat index: 93.7 F (34.3 C):1
Dew Point: 74.3 F (23.5 C)
Relative Humidity: 68%
Pressure (altimeter): 29.84 in. Hg (1010 hPa)
ob: PKWA 230140Z AUTO 06015KT 10SM SCT023 SCT031 BKN046 30/24 A2984 RMK AO2 T02990235
cycle: 1



Upper Air


Latest Skew-T

Skew T Diagram

Latest Data File